sensor_id;sensor_type;location;lat;lon;timestamp;pressure;altitude;pressure_sealevel;temperature;humidity
41688;BME280;27371;42.686;23.362;2023-09-18T00:01:37;166520.38;;;16.56;100.00
41688;BME280;27371;42.686;23.362;2023-09-18T00:04:05;166545.88;;;16.65;100.00
41688;BME280;27371;42.686;23.362;2023-09-18T00:06:30;166552.56;;;16.68;100.00
41688;BME280;27371;42.686;23.362;2023-09-18T00:08:56;166551.19;;;16.67;100.00
41688;BME280;27371;42.686;23.362;2023-09-18T00:11:22;166556.56;;;16.69;100.00
41688;BME280;27371;42.686;23.362;2023-09-18T00:13:47;166572.66;;;16.76;100.00
41688;BME280;27371;42.686;23.362;2023-09-18T00:16:12;166537.81;;;16.62;100.00
41688;BME280;27371;42.686;23.362;2023-09-18T00:18:38;166551.19;;;16.67;100.00
41688;BME280;27371;42.686;23.362;2023-09-18T00:21:04;166548.53;;;16.66;100.00
41688;BME280;27371;42.686;23.362;2023-09-18T00:23:29;166556.56;;;16.69;100.00
41688;BME280;27371;42.686;23.362;2023-09-18T00:25:55;166570.00;;;16.75;100.00
41688;BME280;27371;42.686;23.362;2023-09-18T00:28:20;166571.31;;;16.75;100.00
41688;BME280;27371;42.686;23.362;2023-09-18T00:30:49;166571.31;;;16.75;99.77
41688;BME280;27371;42.686;23.362;2023-09-18T00:33:15;166563.28;;;16.72;99.29
41688;BME280;27371;42.686;23.362;2023-09-18T00:35:50;166594.16;;;16.84;98.44
41688;BME280;27371;42.686;23.362;2023-09-18T00:38:17;166590.16;;;16.82;97.68
41688;BME280;27371;42.686;23.362;2023-09-18T00:40:43;166607.59;;;16.89;96.81
41688;BME280;27371;42.686;23.362;2023-09-18T00:43:10;166621.00;;;16.94;96.48
41688;BME280;27371;42.686;23.362;2023-09-18T00:45:40;166614.28;;;16.91;96.23
41688;BME280;27371;42.686;23.362;2023-09-18T00:48:07;166623.66;;;16.95;96.19
41688;BME280;27371;42.686;23.362;2023-09-18T00:50:33;166599.53;;;16.86;96.16
41688;BME280;27371;42.686;23.362;2023-09-18T00:52:59;166629.03;;;16.97;96.06
41688;BME280;27371;42.686;23.362;2023-09-18T00:55:27;166611.63;;;16.90;95.84
41688;BME280;27371;42.686;23.362;2023-09-18T00:57:55;166629.03;;;16.97;95.97
41688;BME280;27371;42.686;23.362;2023-09-18T01:00:21;166625.03;;;16.96;96.06
41688;BME280;27371;42.686;23.362;2023-09-18T01:02:48;166627.72;;;16.97;95.93
41688;BME280;27371;42.686;23.362;2023-09-18T01:05:14;166614.28;;;16.91;95.54
41688;BME280;27371;42.686;23.362;2023-09-18T01:07:42;166622.34;;;16.95;95.49
41688;BME280;27371;42.686;23.362;2023-09-18T01:10:07;166596.88;;;16.85;95.20
41688;BME280;27371;42.686;23.362;2023-09-18T01:15:57;166606.25;;;16.88;94.83
41688;BME280;27371;42.686;23.362;2023-09-18T01:18:02;166580.75;;;16.79;94.96
41688;BME280;27371;42.686;23.362;2023-09-18T01:20:28;166584.78;;;16.80;95.04
41688;BME280;27371;42.686;23.362;2023-09-18T01:22:54;166583.47;;;16.80;94.98
41688;BME280;27371;42.686;23.362;2023-09-18T01:25:19;166543.16;;;16.64;94.88
41688;BME280;27371;42.686;23.362;2023-09-18T01:27:45;166563.28;;;16.72;95.12
41688;BME280;27371;42.686;23.362;2023-09-18T01:30:11;166536.44;;;16.62;95.46
41688;BME280;27371;42.686;23.362;2023-09-18T01:32:38;166442.59;;;16.26;95.56
41688;BME280;27371;42.686;23.362;2023-09-18T01:35:05;166531.13;;;16.60;96.10
41688;BME280;27371;42.686;23.362;2023-09-18T01:37:33;166524.41;;;16.57;96.43
41688;BME280;27371;42.686;23.362;2023-09-18T01:40:01;166533.78;;;16.61;96.18
41688;BME280;27371;42.686;23.362;2023-09-18T01:42:32;166521.69;;;16.56;96.21
41688;BME280;27371;42.686;23.362;2023-09-18T01:44:57;166515.00;;;16.54;96.03
41688;BME280;27371;42.686;23.362;2023-09-18T01:47:23;166529.75;;;16.59;95.94
41688;BME280;27371;42.686;23.362;2023-09-18T01:49:49;166532.44;;;16.60;96.17
41688;BME280;27371;42.686;23.362;2023-09-18T01:52:15;166529.75;;;16.59;96.03
41688;BME280;27371;42.686;23.362;2023-09-18T01:54:40;166520.38;;;16.56;95.99
41688;BME280;27371;42.686;23.362;2023-09-18T01:57:06;166535.13;;;16.61;95.97
41688;BME280;27371;42.686;23.362;2023-09-18T01:59:33;166528.41;;;16.59;95.71
41688;BME280;27371;42.686;23.362;2023-09-18T02:01:59;166548.53;;;16.66;95.51
41688;BME280;27371;42.686;23.362;2023-09-18T02:04:24;166561.94;;;16.72;94.77
41688;BME280;27371;42.686;23.362;2023-09-18T02:06:51;166574.03;;;16.76;94.95
41688;BME280;27371;42.686;23.362;2023-09-18T02:09:17;166576.75;;;16.77;94.75
41688;BME280;27371;42.686;23.362;2023-09-18T02:11:46;166574.03;;;16.76;94.37
41688;BME280;27371;42.686;23.362;2023-09-18T02:14:12;166579.41;;;16.78;94.36
41688;BME280;27371;42.686;23.362;2023-09-18T02:16:40;166582.13;;;16.79;94.25
41688;BME280;27371;42.686;23.362;2023-09-18T02:19:10;166595.53;;;16.84;93.99
41688;BME280;27371;42.686;23.362;2023-09-18T02:21:36;166592.84;;;16.83;93.68
41688;BME280;27371;42.686;23.362;2023-09-18T02:24:01;166576.75;;;16.77;93.49
41688;BME280;27371;42.686;23.362;2023-09-18T02:26:27;166563.28;;;16.72;93.46
41688;BME280;27371;42.686;23.362;2023-09-18T02:28:54;166570.00;;;16.75;93.18
41688;BME280;27371;42.686;23.362;2023-09-18T02:31:20;166561.94;;;16.72;93.40
41688;BME280;27371;42.686;23.362;2023-09-18T02:33:47;166543.16;;;16.64;93.82
41688;BME280;27371;42.686;23.362;2023-09-18T02:36:13;166544.47;;;16.65;93.64
41688;BME280;27371;42.686;23.362;2023-09-18T02:38:38;166523.03;;;16.57;94.02
41688;BME280;27371;42.686;23.362;2023-09-18T02:41:04;166532.44;;;16.60;93.55
41688;BME280;27371;42.686;23.362;2023-09-18T02:43:29;166506.94;;;16.51;93.98
41688;BME280;27371;42.686;23.362;2023-09-18T02:45:55;166512.31;;;16.53;94.11
41688;BME280;27371;42.686;23.362;2023-09-18T02:48:20;166505.63;;;16.50;94.17
41688;BME280;27371;42.686;23.362;2023-09-18T02:50:46;166488.22;;;16.43;94.35
41688;BME280;27371;42.686;23.362;2023-09-18T02:53:20;166484.16;;;16.42;94.46
41688;BME280;27371;42.686;23.362;2023-09-18T02:55:47;166454.66;;;16.31;94.71
41688;BME280;27371;42.686;23.362;2023-09-18T02:58:12;166462.72;;;16.34;95.02
41688;BME280;27371;42.686;23.362;2023-09-18T03:00:42;166438.59;;;16.24;95.25
41688;BME280;27371;42.686;23.362;2023-09-18T03:03:08;166441.25;;;16.25;95.63
41688;BME280;27371;42.686;23.362;2023-09-18T03:05:35;166431.88;;;16.22;95.81
41688;BME280;27371;42.686;23.362;2023-09-18T03:08:00;166439.94;;;16.25;95.67
41688;BME280;27371;42.686;23.362;2023-09-18T03:10:25;166427.84;;;16.20;95.67
41688;BME280;27371;42.686;23.362;2023-09-18T03:12:51;166398.34;;;16.09;96.04
41688;BME280;27371;42.686;23.362;2023-09-18T03:15:17;166364.88;;;15.96;96.08
41688;BME280;27371;42.686;23.362;2023-09-18T03:17:42;166405.06;;;16.12;96.35
41688;BME280;27371;42.686;23.362;2023-09-18T03:20:08;166410.44;;;16.14;96.51
41688;BME280;27371;42.686;23.362;2023-09-18T03:22:34;166389.00;;;16.06;96.29
41688;BME280;27371;42.686;23.362;2023-09-18T03:25:00;166372.91;;;15.99;96.49
41688;BME280;27371;42.686;23.362;2023-09-18T03:27:26;166391.66;;;16.07;96.57
41688;BME280;27371;42.686;23.362;2023-09-18T03:29:54;166386.31;;;16.05;96.47
41688;BME280;27371;42.686;23.362;2023-09-18T03:32:20;166401.06;;;16.10;96.63
41688;BME280;27371;42.686;23.362;2023-09-18T03:34:46;166397.03;;;16.09;96.72
41688;BME280;27371;42.686;23.362;2023-09-18T03:37:12;166383.63;;;16.03;96.71
41688;BME280;27371;42.686;23.362;2023-09-18T03:39:37;166375.56;;;16.00;96.90
41688;BME280;27371;42.686;23.362;2023-09-18T03:42:03;166370.19;;;15.98;97.01
41688;BME280;27371;42.686;23.362;2023-09-18T03:44:28;166371.56;;;15.99;97.00
41688;BME280;27371;42.686;23.362;2023-09-18T03:46:54;166375.56;;;16.00;96.72
41688;BME280;27371;42.686;23.362;2023-09-18T03:49:19;166348.75;;;15.90;97.46
41688;BME280;27371;42.686;23.362;2023-09-18T03:51:45;166351.47;;;15.91;97.55
41688;BME280;27371;42.686;23.362;2023-09-18T03:54:10;166325.97;;;15.81;97.66
41688;BME280;27371;42.686;23.362;2023-09-18T03:56:35;166350.13;;;15.91;97.74
41688;BME280;27371;42.686;23.362;2023-09-18T03:59:01;166321.97;;;15.80;98.03
41688;BME280;27371;42.686;23.362;2023-09-18T04:01:27;166334.00;;;15.85;98.11
41688;BME280;27371;42.686;23.362;2023-09-18T04:03:52;166330.00;;;15.83;98.44
41688;BME280;27371;42.686;23.362;2023-09-18T04:06:20;166334.00;;;15.85;98.26
41688;BME280;27371;42.686;23.362;2023-09-18T04:08:46;166277.69;;;15.63;98.40
41688;BME280;27371;42.686;23.362;2023-09-18T04:11:11;166330.00;;;15.83;98.33
41688;BME280;27371;42.686;23.362;2023-09-18T04:13:37;166324.63;;;15.81;98.57
41688;BME280;27371;42.686;23.362;2023-09-18T04:16:04;166300.53;;;15.72;98.67
41688;BME280;27371;42.686;23.362;2023-09-18T04:18:29;166287.06;;;15.67;98.71
41688;BME280;27371;42.686;23.362;2023-09-18T04:20:55;166308.56;;;15.75;98.86
41688;BME280;27371;42.686;23.362;2023-09-18T04:23:25;166293.81;;;15.69;99.24
41688;BME280;27371;42.686;23.362;2023-09-18T04:25:52;166272.31;;;15.61;99.34
41688;BME280;27371;42.686;23.362;2023-09-18T04:28:22;166276.31;;;15.63;99.75
41688;BME280;27371;42.686;23.362;2023-09-18T04:30:47;166275.00;;;15.62;99.88
41688;BME280;27371;42.686;23.362;2023-09-18T04:33:14;166297.81;;;15.71;100.00
41688;BME280;27371;42.686;23.362;2023-09-18T04:35:40;166296.50;;;15.70;99.91
41688;BME280;27371;42.686;23.362;2023-09-18T04:38:07;166291.13;;;15.68;99.95
41688;BME280;27371;42.686;23.362;2023-09-18T04:40:34;166320.59;;;15.79;99.57
41688;BME280;27371;42.686;23.362;2023-09-18T04:43:00;166321.97;;;15.80;99.74
41688;BME280;27371;42.686;23.362;2023-09-18T04:45:26;166315.28;;;15.77;99.60
41688;BME280;27371;42.686;23.362;2023-09-18T04:47:52;166331.34;;;15.84;99.38
41688;BME280;27371;42.686;23.362;2023-09-18T04:50:18;166405.06;;;16.12;99.40
41688;BME280;27371;42.686;23.362;2023-09-18T04:52:44;166468.09;;;16.36;97.86
41688;BME280;27371;42.686;23.362;2023-09-18T04:55:10;166504.28;;;16.50;96.27
41688;BME280;27371;42.686;23.362;2023-09-18T04:57:36;166549.88;;;16.67;95.34
41688;BME280;27371;42.686;23.362;2023-09-18T05:00:02;166567.31;;;16.74;94.23
41688;BME280;27371;42.686;23.362;2023-09-18T05:02:28;166645.13;;;17.03;92.71
41688;BME280;27371;42.686;23.362;2023-09-18T05:04:56;166669.31;;;17.12;91.81
41688;BME280;27371;42.686;23.362;2023-09-18T05:07:21;166716.22;;;17.30;89.86
41688;BME280;27371;42.686;23.362;2023-09-18T05:09:47;166748.44;;;17.43;89.25
41688;BME280;27371;42.686;23.362;2023-09-18T05:12:12;166761.88;;;17.48;88.44
41688;BME280;27371;42.686;23.362;2023-09-18T05:14:41;166753.78;;;17.45;87.96
41688;BME280;27371;42.686;23.362;2023-09-18T05:17:09;166818.19;;;17.69;87.40
41688;BME280;27371;42.686;23.362;2023-09-18T05:19:35;166814.19;;;17.68;86.40
41688;BME280;27371;42.686;23.362;2023-09-18T05:22:00;166842.41;;;17.78;86.38
41688;BME280;27371;42.686;23.362;2023-09-18T05:24:26;166819.50;;;17.70;84.59
41688;BME280;27371;42.686;23.362;2023-09-18T05:26:53;166799.44;;;17.62;85.49
41688;BME280;27371;42.686;23.362;2023-09-18T05:29:19;166815.50;;;17.68;85.40
41688;BME280;27371;42.686;23.362;2023-09-18T05:31:45;166839.66;;;17.77;86.95
41688;BME280;27371;42.686;23.362;2023-09-18T05:34:11;166878.63;;;17.92;85.53
41688;BME280;27371;42.686;23.362;2023-09-18T05:36:37;166866.56;;;17.88;84.97
41688;BME280;27371;42.686;23.362;2023-09-18T05:39:03;166890.69;;;17.97;85.46
41688;BME280;27371;42.686;23.362;2023-09-18T05:41:29;166933.63;;;18.13;84.98
41688;BME280;27371;42.686;23.362;2023-09-18T05:43:57;166971.19;;;18.28;84.26
41688;BME280;27371;42.686;23.362;2023-09-18T05:46:22;167012.81;;;18.43;83.36
41688;BME280;27371;42.686;23.362;2023-09-18T05:48:48;167030.28;;;18.50;82.81
41688;BME280;27371;42.686;23.362;2023-09-18T05:51:13;167100.13;;;18.77;81.84
41688;BME280;27371;42.686;23.362;2023-09-18T05:53:39;167132.38;;;18.89;81.26
41688;BME280;27371;42.686;23.362;2023-09-18T05:56:05;167195.44;;;19.13;80.21
41688;BME280;27371;42.686;23.362;2023-09-18T05:58:33;167281.38;;;19.46;79.57
41688;BME280;27371;42.686;23.362;2023-09-18T06:01:01;167339.19;;;19.68;77.16
41688;BME280;27371;42.686;23.362;2023-09-18T06:03:27;167362.00;;;19.76;76.81
41688;BME280;27371;42.686;23.362;2023-09-18T06:05:55;167388.88;;;19.87;75.99
41688;BME280;27371;42.686;23.362;2023-09-18T06:08:21;167462.75;;;20.15;74.83
41688;BME280;27371;42.686;23.362;2023-09-18T06:10:47;167447.97;;;20.09;73.23
41688;BME280;27371;42.686;23.362;2023-09-18T06:13:13;167466.81;;;20.16;74.01
41688;BME280;27371;42.686;23.362;2023-09-18T06:15:38;167460.09;;;20.14;72.88
41688;BME280;27371;42.686;23.362;2023-09-18T06:18:04;167456.03;;;20.12;72.92
41688;BME280;27371;42.686;23.362;2023-09-18T06:20:29;167452.03;;;20.11;72.82
41688;BME280;27371;42.686;23.362;2023-09-18T06:22:55;167415.75;;;19.97;73.09
41688;BME280;27371;42.686;23.362;2023-09-18T06:25:20;167398.28;;;19.90;73.90
41688;BME280;27371;42.686;23.362;2023-09-18T06:27:46;167441.25;;;20.07;73.11
41688;BME280;27371;42.686;23.362;2023-09-18T06:30:11;167492.31;;;20.26;71.71
41688;BME280;27371;42.686;23.362;2023-09-18T06:32:37;167465.47;;;20.16;71.61
41688;BME280;27371;42.686;23.362;2023-09-18T06:35:03;167482.91;;;20.22;71.61
41688;BME280;27371;42.686;23.362;2023-09-18T06:37:28;167554.13;;;20.50;71.44
41688;BME280;27371;42.686;23.362;2023-09-18T06:39:55;167575.69;;;20.58;69.57
41688;BME280;27371;42.686;23.362;2023-09-18T06:42:22;167685.88;;;21.00;69.02
41688;BME280;27371;42.686;23.362;2023-09-18T06:44:47;167715.44;;;21.11;68.11
41688;BME280;27371;42.686;23.362;2023-09-18T06:47:13;167685.88;;;21.00;67.87
41688;BME280;27371;42.686;23.362;2023-09-18T06:49:40;167602.56;;;20.68;68.66
41688;BME280;27371;42.686;23.362;2023-09-18T06:52:07;167593.13;;;20.64;68.88
41688;BME280;27371;42.686;23.362;2023-09-18T06:54:33;167593.13;;;20.64;68.55
41688;BME280;27371;42.686;23.362;2023-09-18T06:56:58;167609.31;;;20.71;69.75
41688;BME280;27371;42.686;23.362;2023-09-18T06:59:24;167636.13;;;20.81;68.98
41688;BME280;27371;42.686;23.362;2023-09-18T07:01:49;167683.19;;;20.99;68.70
41688;BME280;27371;42.686;23.362;2023-09-18T07:04:15;167743.66;;;21.22;67.62
41688;BME280;27371;42.686;23.362;2023-09-18T07:06:40;167762.50;;;21.29;66.01
41688;BME280;27371;42.686;23.362;2023-09-18T07:09:06;167774.56;;;21.33;66.50
41688;BME280;27371;42.686;23.362;2023-09-18T07:11:33;167785.41;;;21.38;65.81
41688;BME280;27371;42.686;23.362;2023-09-18T07:13:59;167769.22;;;21.31;65.90
41688;BME280;27371;42.686;23.362;2023-09-18T07:16:24;167809.56;;;21.47;65.57
41688;BME280;27371;42.686;23.362;2023-09-18T07:18:50;167844.53;;;21.60;65.15
41688;BME280;27371;42.686;23.362;2023-09-18T07:21:15;167836.47;;;21.57;64.69
41688;BME280;27371;42.686;23.362;2023-09-18T07:23:41;167816.31;;;21.49;65.21
41688;BME280;27371;42.686;23.362;2023-09-18T07:26:06;167892.94;;;21.78;63.78
41688;BME280;27371;42.686;23.362;2023-09-18T07:28:32;167800.19;;;21.43;65.07
41688;BME280;27371;42.686;23.362;2023-09-18T07:31:04;167762.50;;;21.29;65.69
41688;BME280;27371;42.686;23.362;2023-09-18T07:33:30;167765.16;;;21.30;65.50
41688;BME280;27371;42.686;23.362;2023-09-18T07:35:55;167777.28;;;21.34;66.12
41688;BME280;27371;42.686;23.362;2023-09-18T07:38:21;167831.09;;;21.55;65.62
41688;BME280;27371;42.686;23.362;2023-09-18T07:40:46;167884.88;;;21.75;64.81
41688;BME280;27371;42.686;23.362;2023-09-18T07:43:12;167941.31;;;21.97;63.54
41688;BME280;27371;42.686;23.362;2023-09-18T07:45:39;168007.31;;;22.22;62.46
41688;BME280;27371;42.686;23.362;2023-09-18T07:48:08;168000.56;;;22.19;61.69
41688;BME280;27371;42.686;23.362;2023-09-18T07:50:36;168019.38;;;22.27;61.31
41688;BME280;27371;42.686;23.362;2023-09-18T07:53:02;168043.63;;;22.36;61.14
41688;BME280;27371;42.686;23.362;2023-09-18T07:55:28;168053.00;;;22.39;60.74
41688;BME280;27371;42.686;23.362;2023-09-18T07:57:55;168078.53;;;22.49;59.86
41688;BME280;27371;42.686;23.362;2023-09-18T08:00:20;168004.59;;;22.21;60.39
41688;BME280;27371;42.686;23.362;2023-09-18T08:02:48;168039.56;;;22.34;60.94
41688;BME280;27371;42.686;23.362;2023-09-18T08:05:15;168073.19;;;22.47;59.79
41688;BME280;27371;42.686;23.362;2023-09-18T08:07:41;168058.41;;;22.41;60.11
41688;BME280;27371;42.686;23.362;2023-09-18T08:10:07;168122.91;;;22.66;59.59
41688;BME280;27371;42.686;23.362;2023-09-18T08:12:34;168159.22;;;22.80;58.93
41688;BME280;27371;42.686;23.362;2023-09-18T08:15:00;168160.63;;;22.80;58.64
41688;BME280;27371;42.686;23.362;2023-09-18T08:17:26;168172.69;;;22.85;58.68
41688;BME280;27371;42.686;23.362;2023-09-18T08:19:52;168182.16;;;22.88;58.68
41688;BME280;27371;42.686;23.362;2023-09-18T08:22:18;168218.50;;;23.02;58.12
41688;BME280;27371;42.686;23.362;2023-09-18T08:24:46;168219.84;;;23.03;57.57
41688;BME280;27371;42.686;23.362;2023-09-18T08:27:14;168206.38;;;22.98;57.63
41688;BME280;27371;42.686;23.362;2023-09-18T08:29:45;168221.19;;;23.03;57.79
41688;BME280;27371;42.686;23.362;2023-09-18T08:32:11;168221.19;;;23.03;56.60
41688;BME280;27371;42.686;23.362;2023-09-18T08:34:37;168206.38;;;22.98;57.14
41688;BME280;27371;42.686;23.362;2023-09-18T08:37:03;168190.22;;;22.92;57.45
41688;BME280;27371;42.686;23.362;2023-09-18T08:39:29;168153.88;;;22.78;57.86
41688;BME280;27371;42.686;23.362;2023-09-18T08:41:59;168167.34;;;22.83;57.36
41688;BME280;27371;42.686;23.362;2023-09-18T08:44:27;168221.19;;;23.03;56.22
41688;BME280;27371;42.686;23.362;2023-09-18T08:46:54;168254.84;;;23.16;56.92
41688;BME280;27371;42.686;23.362;2023-09-18T08:49:22;168277.69;;;23.25;56.47
41688;BME280;27371;42.686;23.362;2023-09-18T08:51:49;168237.31;;;23.09;56.47
41688;BME280;27371;42.686;23.362;2023-09-18T08:54:15;168264.25;;;23.20;56.74
41688;BME280;27371;42.686;23.362;2023-09-18T08:56:41;168269.63;;;23.22;56.33
41688;BME280;27371;42.686;23.362;2023-09-18T08:59:06;168307.31;;;23.36;55.31
41688;BME280;27371;42.686;23.362;2023-09-18T09:01:32;168311.31;;;23.38;54.56
41688;BME280;27371;42.686;23.362;2023-09-18T09:03:57;168331.50;;;23.45;55.12
41688;BME280;27371;42.686;23.362;2023-09-18T09:06:23;168421.75;;;23.80;54.25
41688;BME280;27371;42.686;23.362;2023-09-18T09:08:49;168455.34;;;23.92;53.58
41688;BME280;27371;42.686;23.362;2023-09-18T09:11:15;168421.75;;;23.80;53.31
41688;BME280;27371;42.686;23.362;2023-09-18T09:13:40;168373.22;;;23.61;53.90
41688;BME280;27371;42.686;23.362;2023-09-18T09:16:11;168377.28;;;23.63;53.96
41688;BME280;27371;42.686;23.362;2023-09-18T09:18:47;168398.88;;;23.71;53.54
41688;BME280;27371;42.686;23.362;2023-09-18T09:21:13;168415.00;;;23.77;53.54
41688;BME280;27371;42.686;23.362;2023-09-18T09:23:52;168480.94;;;24.02;52.59
41688;BME280;27371;42.686;23.362;2023-09-18T09:26:19;168484.94;;;24.04;51.89
41688;BME280;27371;42.686;23.362;2023-09-18T09:28:46;168435.19;;;23.85;51.44
41688;BME280;27371;42.686;23.362;2023-09-18T09:31:13;168369.16;;;23.60;52.31
41688;BME280;27371;42.686;23.362;2023-09-18T09:33:51;168342.28;;;23.49;53.50
41688;BME280;27371;42.686;23.362;2023-09-18T09:36:21;168390.69;;;23.68;52.78
41688;BME280;27371;42.686;23.362;2023-09-18T09:38:47;168335.56;;;23.47;52.86
41688;BME280;27371;42.686;23.362;2023-09-18T09:41:16;168344.97;;;23.50;53.30
41688;BME280;27371;42.686;23.362;2023-09-18T09:43:43;168351.69;;;23.53;53.59
41688;BME280;27371;42.686;23.362;2023-09-18T09:46:16;168328.81;;;23.44;53.57
41688;BME280;27371;42.686;23.362;2023-09-18T09:49:04;168291.16;;;23.30;52.09
41688;BME280;27371;42.686;23.362;2023-09-18T09:51:31;168249.44;;;23.14;53.08
41688;BME280;27371;42.686;23.362;2023-09-18T09:53:57;168291.16;;;23.30;53.27
41688;BME280;27371;42.686;23.362;2023-09-18T09:56:46;168304.63;;;23.35;52.24
41688;BME280;27371;42.686;23.362;2023-09-18T09:59:14;168326.09;;;23.43;52.46
41688;BME280;27371;42.686;23.362;2023-09-18T10:01:41;168319.41;;;23.41;52.31
41688;BME280;27371;42.686;23.362;2023-09-18T10:04:15;168354.38;;;23.54;52.13
41688;BME280;27371;42.686;23.362;2023-09-18T10:06:51;168401.53;;;23.72;51.45
41688;BME280;27371;42.686;23.362;2023-09-18T10:09:19;168389.38;;;23.67;50.43
41688;BME280;27371;42.686;23.362;2023-09-18T10:11:49;168354.38;;;23.54;49.78
41688;BME280;27371;42.686;23.362;2023-09-18T10:14:19;168466.16;;;23.96;49.42
41688;BME280;27371;42.686;23.362;2023-09-18T10:16:53;168419.00;;;23.78;48.98
41688;BME280;27371;42.686;23.362;2023-09-18T10:19:40;168423.06;;;23.80;49.63
41688;BME280;27371;42.686;23.362;2023-09-18T10:22:21;168448.63;;;23.90;49.46
41688;BME280;27371;42.686;23.362;2023-09-18T10:24:54;168499.75;;;24.09;48.67
41688;BME280;27371;42.686;23.362;2023-09-18T10:27:20;168509.22;;;24.13;48.93
41688;BME280;27371;42.686;23.362;2023-09-18T10:29:49;168524.00;;;24.18;48.52
41688;BME280;27371;42.686;23.362;2023-09-18T10:32:17;168548.22;;;24.28;48.24
41688;BME280;27371;42.686;23.362;2023-09-18T10:34:44;168525.34;;;24.19;47.28
41688;BME280;27371;42.686;23.362;2023-09-18T10:37:11;168460.75;;;23.94;47.54
41688;BME280;27371;42.686;23.362;2023-09-18T10:39:38;168511.88;;;24.14;47.45
41688;BME280;27371;42.686;23.362;2023-09-18T10:42:09;168487.69;;;24.05;47.74
41688;BME280;27371;42.686;23.362;2023-09-18T10:44:36;168530.75;;;24.21;48.32
41688;BME280;27371;42.686;23.362;2023-09-18T10:47:06;168541.50;;;24.25;48.48
41688;BME280;27371;42.686;23.362;2023-09-18T10:49:34;168525.34;;;24.19;47.73
41688;BME280;27371;42.686;23.362;2023-09-18T10:52:00;168491.69;;;24.06;48.93
41688;BME280;27371;42.686;23.362;2023-09-18T10:54:28;168524.00;;;24.18;48.65
41688;BME280;27371;42.686;23.362;2023-09-18T10:56:56;168521.28;;;24.17;48.05
41688;BME280;27371;42.686;23.362;2023-09-18T10:59:22;168528.03;;;24.20;47.54
41688;BME280;27371;42.686;23.362;2023-09-18T11:01:48;168476.88;;;24.00;47.09
41688;BME280;27371;42.686;23.362;2023-09-18T11:04:18;168536.09;;;24.23;47.25
41688;BME280;27371;42.686;23.362;2023-09-18T11:09:27;168538.81;;;24.24;46.99
41688;BME280;27371;42.686;23.362;2023-09-18T11:14:22;168561.69;;;24.33;46.21
41688;BME280;27371;42.686;23.362;2023-09-18T11:16:49;168568.44;;;24.35;46.21
41688;BME280;27371;42.686;23.362;2023-09-18T11:19:18;168534.75;;;24.22;46.32
41688;BME280;27371;42.686;23.362;2023-09-18T11:21:45;168540.16;;;24.25;46.43
41688;BME280;27371;42.686;23.362;2023-09-18T11:24:20;168552.28;;;24.29;46.51
41688;BME280;27371;42.686;23.362;2023-09-18T11:26:48;168576.50;;;24.38;46.10
41688;BME280;27371;42.686;23.362;2023-09-18T11:29:24;168564.38;;;24.34;46.31
41688;BME280;27371;42.686;23.362;2023-09-18T11:31:55;168587.25;;;24.42;45.84
41688;BME280;27371;42.686;23.362;2023-09-18T11:34:26;168616.97;;;24.54;45.42
41688;BME280;27371;42.686;23.362;2023-09-18T11:36:52;168577.84;;;24.39;45.34
41688;BME280;27371;42.686;23.362;2023-09-18T11:42:16;168584.56;;;24.41;45.79
41688;BME280;27371;42.686;23.362;2023-09-18T11:44:43;168585.91;;;24.42;45.96
41688;BME280;27371;42.686;23.362;2023-09-18T11:47:16;168569.75;;;24.36;46.45
41688;BME280;27371;42.686;23.362;2023-09-18T11:49:49;168615.56;;;24.53;46.08
41688;BME280;27371;42.686;23.362;2023-09-18T11:52:16;168661.38;;;24.71;45.53
41688;BME280;27371;42.686;23.362;2023-09-18T11:54:43;168699.06;;;24.85;44.88
41688;BME280;27371;42.686;23.362;2023-09-18T11:57:12;168657.31;;;24.69;45.18
41688;BME280;27371;42.686;23.362;2023-09-18T11:59:39;168643.84;;;24.64;45.79
41688;BME280;27371;42.686;23.362;2023-09-18T12:02:06;168614.22;;;24.53;45.54
41688;BME280;27371;42.686;23.362;2023-09-18T12:04:34;168618.28;;;24.54;45.76
41688;BME280;27371;42.686;23.362;2023-09-18T12:06:59;168623.63;;;24.56;44.93
41688;BME280;27371;42.686;23.362;2023-09-18T12:09:30;168638.50;;;24.62;45.28
41688;BME280;27371;42.686;23.362;2023-09-18T12:11:57;168668.13;;;24.73;46.08
41688;BME280;27371;42.686;23.362;2023-09-18T12:14:23;168691.00;;;24.82;46.01
41688;BME280;27371;42.686;23.362;2023-09-18T12:16:49;168684.25;;;24.79;46.46
41688;BME280;27371;42.686;23.362;2023-09-18T12:19:19;168622.31;;;24.56;46.74
41688;BME280;27371;42.686;23.362;2023-09-18T12:21:47;168614.22;;;24.53;46.51
41688;BME280;27371;42.686;23.362;2023-09-18T12:24:15;168606.16;;;24.50;46.29
41688;BME280;27371;42.686;23.362;2023-09-18T12:26:41;168631.75;;;24.59;45.72
41688;BME280;27371;42.686;23.362;2023-09-18T12:29:06;168561.69;;;24.33;46.04
41688;BME280;27371;42.686;23.362;2023-09-18T12:31:33;168641.16;;;24.63;46.33
41688;BME280;27371;42.686;23.362;2023-09-18T12:33:59;168678.84;;;24.77;46.16
41688;BME280;27371;42.686;23.362;2023-09-18T12:36:25;168696.38;;;24.84;44.67
41688;BME280;27371;42.686;23.362;2023-09-18T12:38:57;168587.25;;;24.42;45.61
41688;BME280;27371;42.686;23.362;2023-09-18T12:41:28;168660.03;;;24.70;46.10
41688;BME280;27371;42.686;23.362;2023-09-18T12:43:56;168657.31;;;24.69;46.51
41688;BME280;27371;42.686;23.362;2023-09-18T12:46:24;168696.38;;;24.84;45.75
41688;BME280;27371;42.686;23.362;2023-09-18T12:48:50;168699.06;;;24.85;45.98
41688;BME280;27371;42.686;23.362;2023-09-18T12:51:16;168730.00;;;24.97;45.89